Time;durP1;ratioP1;P1;durP2;ratioP2;P2;SDS_P1;SDS_P2;PMS_P1;PMS_P2;Temp;Humidity;BMP_temperature;BMP_pressure;BME280_temperature;BME280_humidity;BME280_pressure;Samples;Min_cycle;Max_cycle;Signal;HPM_P1;HPM_P2
2022/12/01 00:00:10;;;;;;;;;;;;;;;7.42;100.00;100330.00;5007237;28;20399;-71
2022/12/01 00:02:35;;;;;;;;;;;;;;;7.27;100.00;100342.59;5005891;28;19973;-70
2022/12/01 00:05:01;;;;;;;;;;;;;;;7.39;100.00;100331.09;5007398;28;20216;-68
2022/12/01 00:07:26;;;;;;;;;;;;;;;7.52;100.00;100325.63;5005998;28;19984;-68
2022/12/01 00:12:42;;;;;;;;;;;;;;;7.23;100.00;100288.50;5007158;28;19936;-71
2022/12/01 00:15:07;;;;;;;;;;;;;;;7.54;100.00;100324.53;4999257;28;20115;-68
2022/12/01 00:17:32;;;;;;;;;;;;;;;7.59;100.00;100319.72;5005997;28;19917;-71
2022/12/01 00:19:58;;;;;;;;;;;;;;;7.54;100.00;100321.06;5006860;28;19918;-71
2022/12/01 00:22:23;;;;;;;;;;;;;;;7.61;100.00;100317.78;5006034;28;19913;-71
2022/12/01 00:24:48;;;;;;;;;;;;;;;7.56;100.00;100316.50;5017162;28;19924;-71
2022/12/01 00:27:14;;;;;;;;;;;;;;;7.41;100.00;100318.63;5005539;28;19913;-71
2022/12/01 00:29:39;;;;;;;;;;;;;;;7.55;100.00;100320.94;5007342;28;19925;-71
2022/12/01 00:32:04;;;;;;;;;;;;;;;7.62;100.00;100313.34;4988237;28;19918;-70
2022/12/01 00:34:30;;;;;;;;;;;;;;;7.76;100.00;100314.81;5006646;28;19917;-71
2022/12/01 00:36:55;;;;;;;;;;;;;;;7.78;100.00;100315.53;4999301;28;20043;-71
2022/12/01 00:39:20;;;;;;;;;;;;;;;7.92;100.00;100320.47;5006980;28;19923;-69
2022/12/01 00:41:46;;;;;;;;;;;;;;;7.77;100.00;100321.75;5006653;28;19913;-68
2022/12/01 00:44:11;;;;;;;;;;;;;;;7.90;100.00;100320.59;5006370;28;19914;-71
2022/12/01 00:46:36;;;;;;;;;;;;;;;7.95;100.00;100313.13;5007269;28;19924;-69
2022/12/01 00:49:02;;;;;;;;;;;;;;;8.01;100.00;100309.97;5005378;28;19921;-70
2022/12/01 00:51:27;;;;;;;;;;;;;;;7.90;100.00;100307.41;5006810;28;20207;-71
2022/12/01 00:53:52;;;;;;;;;;;;;;;7.62;100.00;100306.28;5010596;28;19910;-69
2022/12/01 00:56:19;;;;;;;;;;;;;;;7.59;100.00;100314.44;5007232;28;20519;-68
2022/12/01 00:58:45;;;;;;;;;;;;;;;7.39;100.00;100312.66;5005055;28;19913;-68
2022/12/01 01:01:10;;;;;;;;;;;;;;;7.41;100.00;100310.72;5007312;28;19925;-71
2022/12/01 01:03:35;;;;;;;;;;;;;;;7.34;100.00;100301.66;5006211;28;19980;-71
2022/12/01 01:06:05;;;;;;;;;;;;;;;7.53;100.00;100298.31;5006292;28;20160;-68
2022/12/01 01:08:30;;;;;;;;;;;;;;;7.50;100.00;100295.94;5005218;28;20176;-68
2022/12/01 01:10:57;;;;;;;;;;;;;;;7.50;100.00;100288.03;5006994;28;19925;-72
2022/12/01 01:13:23;;;;;;;;;;;;;;;7.49;100.00;100286.38;5005220;28;19985;-68
2022/12/01 01:16:05;;;;;;;;;;;;;;;7.52;100.00;100286.94;5006578;28;19956;-70
2022/12/01 01:18:30;;;;;;;;;;;;;;;7.56;100.00;100282.25;5006851;28;20088;-68
2022/12/01 01:20:57;;;;;;;;;;;;;;;7.56;100.00;100274.34;5004723;28;19937;-69
2022/12/01 01:23:22;;;;;;;;;;;;;;;7.54;100.00;100274.47;5006393;28;19959;-71
2022/12/01 01:25:48;;;;;;;;;;;;;;;7.65;100.00;100276.19;5005278;28;19945;-68
2022/12/01 01:28:13;;;;;;;;;;;;;;;7.65;100.00;100278.81;5006105;28;20123;-68
2022/12/01 01:30:38;;;;;;;;;;;;;;;7.80;100.00;100277.53;5006611;28;19922;-71
2022/12/01 01:33:04;;;;;;;;;;;;;;;7.88;100.00;100271.59;4988093;28;19929;-69
2022/12/01 01:35:29;;;;;;;;;;;;;;;7.84;100.00;100265.75;5006122;28;20201;-71
2022/12/01 01:37:54;;;;;;;;;;;;;;;7.92;100.00;100271.19;5010489;28;19914;-69
2022/12/01 01:40:20;;;;;;;;;;;;;;;7.96;100.00;100271.75;5006059;28;19921;-69
2022/12/01 01:42:45;;;;;;;;;;;;;;;8.02;100.00;100266.78;5004855;28;19920;-68
2022/12/01 01:45:21;;;;;;;;;;;;;;;7.96;100.00;100258.56;5006265;28;19917;-70
2022/12/01 01:47:48;;;;;;;;;;;;;;;7.99;100.00;100253.88;5006883;28;19914;-69
2022/12/01 01:50:15;;;;;;;;;;;;;;;8.19;100.00;100262.69;4999215;28;19922;-71
2022/12/01 01:52:43;;;;;;;;;;;;;;;8.11;100.00;100267.81;5006754;28;19996;-68
2022/12/01 01:55:09;;;;;;;;;;;;;;;8.25;100.00;100266.59;5008465;28;20195;-71
2022/12/01 01:57:35;;;;;;;;;;;;;;;8.12;100.00;100271.28;5009541;28;19945;-71
2022/12/01 02:00:07;;;;;;;;;;;;;;;8.19;100.00;100267.13;5009002;28;19945;-68
2022/12/01 02:02:39;;;;;;;;;;;;;;;8.16;100.00;100267.41;5008489;28;19949;-71
2022/12/01 02:05:09;;;;;;;;;;;;;;;8.04;100.00;100264.03;5009262;28;19924;-69
2022/12/01 02:07:35;;;;;;;;;;;;;;;8.12;100.00;100266.00;5010686;28;19913;-71
2022/12/01 02:10:00;;;;;;;;;;;;;;;8.14;100.00;100262.25;5015112;28;19979;-72
2022/12/01 02:12:48;;;;;;;;;;;;;;;8.20;100.00;100267.00;5023707;28;20324;-72
2022/12/01 02:15:16;;;;;;;;;;;;;;;7.93;100.00;100262.31;5010020;28;19936;-69
2022/12/01 02:18:00;;;;;;;;;;;;;;;7.83;100.00;100258.81;5008440;28;20016;-69
2022/12/01 02:20:40;;;;;;;;;;;;;;;7.72;100.00;100265.97;5008294;28;19917;-69
2022/12/01 02:23:24;;;;;;;;;;;;;;;7.74;100.00;100258.75;5008612;28;19949;-68
2022/12/01 02:25:56;;;;;;;;;;;;;;;7.80;100.00;100251.16;5007782;28;19917;-69
2022/12/01 02:28:41;;;;;;;;;;;;;;;7.97;100.00;100252.34;5023206;28;19996;-69
2022/12/01 02:31:12;;;;;;;;;;;;;;;7.86;100.00;100244.53;5007229;28;19917;-68
2022/12/01 02:33:52;;;;;;;;;;;;;;;7.88;100.00;100248.69;5009960;28;19936;-69
2022/12/01 02:36:26;;;;;;;;;;;;;;;8.11;100.00;100249.34;5010725;28;20805;-70
2022/12/01 02:39:00;;;;;;;;;;;;;;;8.02;100.00;100244.88;5035001;28;19925;-69
2022/12/01 02:41:28;;;;;;;;;;;;;;;7.95;100.00;100239.28;5033740;28;19925;-68
2022/12/01 02:43:58;;;;;;;;;;;;;;;8.07;100.00;100239.19;5010057;28;20123;-68
2022/12/01 02:46:31;;;;;;;;;;;;;;;8.16;100.00;100233.09;5007719;28;19953;-71
2022/12/01 02:48:58;;;;;;;;;;;;;;;8.30;100.00;100230.09;5033688;28;20015;-70
2022/12/01 02:51:34;;;;;;;;;;;;;;;8.37;100.00;100241.84;5009464;28;20237;-68
2022/12/01 02:54:02;;;;;;;;;;;;;;;8.48;100.00;100235.59;5007802;28;19914;-70
2022/12/01 02:56:27;;;;;;;;;;;;;;;8.58;100.00;100232.00;5008585;28;19984;-71
2022/12/01 02:58:53;;;;;;;;;;;;;;;8.52;100.00;100235.19;5009283;28;20150;-69
2022/12/01 03:01:24;;;;;;;;;;;;;;;8.43;100.00;100233.38;5008367;28;19956;-71
2022/12/01 03:04:08;;;;;;;;;;;;;;;8.44;100.00;100229.75;5009057;28;19913;-68
2022/12/01 03:06:43;;;;;;;;;;;;;;;8.52;100.00;100226.44;5009498;28;20176;-71
2022/12/01 03:09:17;;;;;;;;;;;;;;;8.47;100.00;100231.28;5008089;28;19914;-71
2022/12/01 03:11:48;;;;;;;;;;;;;;;8.31;100.00;100229.13;5006867;28;19918;-71
2022/12/01 03:14:28;;;;;;;;;;;;;;;8.36;100.00;100226.97;5008114;28;20024;-69
2022/12/01 03:16:56;;;;;;;;;;;;;;;8.25;100.00;100227.84;5008552;28;19918;-69
2022/12/01 03:19:21;;;;;;;;;;;;;;;8.26;100.00;100231.31;5007548;28;19921;-69
2022/12/01 03:21:55;;;;;;;;;;;;;;;8.30;100.00;100232.72;5008595;28;20020;-71
2022/12/01 03:24:21;;;;;;;;;;;;;;;8.43;100.00;100230.72;5008646;28;19929;-72
2022/12/01 03:26:50;;;;;;;;;;;;;;;8.47;100.00;100228.66;5006711;28;19913;-69
2022/12/01 03:29:21;;;;;;;;;;;;;;;8.49;100.00;100224.06;5009880;28;19924;-71
2022/12/01 03:31:49;;;;;;;;;;;;;;;8.52;100.00;100237.00;5008126;28;19913;-68
2022/12/01 03:34:25;;;;;;;;;;;;;;;8.70;100.00;100229.22;5006207;28;19918;-71
2022/12/01 03:37:01;;;;;;;;;;;;;;;8.59;100.00;100231.03;5034312;28;19913;-69
2022/12/01 03:39:31;;;;;;;;;;;;;;;8.56;100.00;100226.03;5006582;28;19936;-69
2022/12/01 03:42:09;;;;;;;;;;;;;;;8.69;100.00;100230.19;5008763;28;19928;-71
2022/12/01 03:44:38;;;;;;;;;;;;;;;8.70;100.00;100231.88;5007420;28;19925;-69
2022/12/01 03:47:06;;;;;;;;;;;;;;;8.85;100.00;100230.47;5006552;28;19960;-69
2022/12/01 03:49:32;;;;;;;;;;;;;;;8.83;100.00;100229.78;5007663;28;19990;-68
2022/12/01 03:51:57;;;;;;;;;;;;;;;8.74;100.00;100231.44;5008836;28;19913;-71
2022/12/01 03:54:26;;;;;;;;;;;;;;;8.72;100.00;100236.03;5006949;28;20147;-68
2022/12/01 03:56:54;;;;;;;;;;;;;;;8.76;100.00;100236.59;5007905;28;19960;-68
2022/12/01 03:59:21;;;;;;;;;;;;;;;8.73;100.00;100231.59;5008192;28;19940;-70
2022/12/01 04:01:46;;;;;;;;;;;;;;;8.66;100.00;100226.03;5016434;28;19914;-69
2022/12/01 04:04:12;;;;;;;;;;;;;;;8.85;100.00;100220.75;5007582;28;19936;-69
2022/12/01 04:06:39;;;;;;;;;;;;;;;8.77;100.00;100220.63;5006524;28;19940;-71
2022/12/01 04:09:04;;;;;;;;;;;;;;;8.79;100.00;100221.31;5006936;28;19948;-71
2022/12/01 04:14:30;;;;;;;;;;;;;;;8.85;100.00;100225.19;4989374;28;20240;-69
2022/12/01 04:16:56;;;;;;;;;;;;;;;8.87;100.00;100224.09;5000501;28;19920;-72
2022/12/01 04:19:22;;;;;;;;;;;;;;;9.02;100.00;100227.13;5006761;28;19948;-69
2022/12/01 04:21:47;;;;;;;;;;;;;;;9.05;100.00;100226.84;5006598;28;20116;-71
2022/12/01 04:24:12;;;;;;;;;;;;;;;9.09;100.00;100217.69;5015193;28;19948;-71
2022/12/01 04:26:38;;;;;;;;;;;;;;;9.08;100.00;100229.22;5008732;28;20223;-71
2022/12/01 04:29:05;;;;;;;;;;;;;;;9.10;100.00;100235.19;5007801;28;19918;-71
2022/12/01 04:31:30;;;;;;;;;;;;;;;9.05;100.00;100229.50;5007183;28;20025;-68
2022/12/01 04:33:56;;;;;;;;;;;;;;;8.96;100.00;100191.56;5005641;28;19921;-68
2022/12/01 04:36:22;;;;;;;;;;;;;;;9.13;100.00;100234.91;5007545;28;19937;-71
2022/12/01 04:38:47;;;;;;;;;;;;;;;9.20;100.00;100230.72;5005377;28;19981;-69
2022/12/01 04:41:13;;;;;;;;;;;;;;;9.28;100.00;100232.66;5006995;28;19921;-70
2022/12/01 04:43:39;;;;;;;;;;;;;;;9.34;100.00;100228.63;5006042;28;19921;-69
2022/12/01 04:46:05;;;;;;;;;;;;;;;9.33;100.00;100240.16;5007266;28;19925;-69
2022/12/01 04:48:30;;;;;;;;;;;;;;;9.17;100.00;100232.81;5006504;28;19941;-71
2022/12/01 04:50:55;;;;;;;;;;;;;;;9.26;100.00;100235.44;4988652;28;19918;-69
2022/12/01 04:53:21;;;;;;;;;;;;;;;9.24;100.00;100237.41;5007102;28;19925;-70
2022/12/01 04:55:46;;;;;;;;;;;;;;;9.03;100.00;100233.25;5015620;28;19924;-68
2022/12/01 04:58:12;;;;;;;;;;;;;;;8.90;100.00;100244.09;5007061;28;20282;-69
2022/12/01 05:00:37;;;;;;;;;;;;;;;8.75;100.00;100240.22;5005768;28;20207;-70
2022/12/01 05:03:02;;;;;;;;;;;;;;;8.36;100.00;100242.81;5006580;28;19949;-71
2022/12/01 05:05:28;;;;;;;;;;;;;;;8.48;100.00;100244.34;4997848;28;19917;-71
2022/12/01 05:07:53;;;;;;;;;;;;;;;8.32;100.00;100239.56;5006668;28;20195;-70
2022/12/01 05:10:19;;;;;;;;;;;;;;;8.52;100.00;100248.38;5020003;28;19918;-71
2022/12/01 05:12:47;;;;;;;;;;;;;;;8.38;100.00;100245.31;5019412;28;19913;-68
2022/12/01 05:15:12;;;;;;;;;;;;;;;8.54;100.00;100248.25;5002364;28;19918;-68
2022/12/01 05:17:37;;;;;;;;;;;;;;;8.61;100.00;100252.84;5002778;28;20201;-70
2022/12/01 05:22:48;;;;;;;;;;;;;;;8.45;100.00;100254.34;5008322;28;19920;-70
2022/12/01 05:25:13;;;;;;;;;;;;;;;8.32;100.00;100252.75;5011241;28;19929;-68
2022/12/01 05:27:38;;;;;;;;;;;;;;;8.47;100.00;100247.13;5002179;28;19913;-68
2022/12/01 05:30:04;;;;;;;;;;;;;;;8.18;100.00;100242.56;5005540;28;19941;-71
2022/12/01 05:32:30;;;;;;;;;;;;;;;8.36;100.00;100245.44;5006684;28;19917;-71
2022/12/01 05:34:55;;;;;;;;;;;;;;;8.37;100.00;100249.75;5013758;28;19919;-71
2022/12/01 05:37:20;;;;;;;;;;;;;;;8.09;100.00;100250.44;5008941;28;19917;-68
2022/12/01 05:39:46;;;;;;;;;;;;;;;8.01;100.00;100241.38;5026316;28;19909;-71
2022/12/01 05:42:11;;;;;;;;;;;;;;;7.95;100.00;100252.47;5026524;28;19963;-69
2022/12/01 05:44:36;;;;;;;;;;;;;;;7.89;100.00;100244.25;5026311;28;19948;-71
2022/12/01 05:47:01;;;;;;;;;;;;;;;8.00;100.00;100242.34;5026371;28;19910;-71
2022/12/01 05:49:27;;;;;;;;;;;;;;;7.95;100.00;100246.38;5026224;28;20138;-68
2022/12/01 05:51:52;;;;;;;;;;;;;;;7.75;100.00;100244.63;5026362;28;20128;-68
2022/12/01 05:54:17;;;;;;;;;;;;;;;7.78;100.00;100246.97;5026248;28;20247;-69
2022/12/01 05:56:43;;;;;;;;;;;;;;;7.78;100.00;100249.63;5026427;28;19913;-71
2022/12/01 05:59:08;;;;;;;;;;;;;;;7.80;100.00;100253.78;5026565;28;20175;-68
2022/12/01 06:01:33;;;;;;;;;;;;;;;7.56;100.00;100253.25;5026175;28;20195;-71
2022/12/01 06:03:59;;;;;;;;;;;;;;;7.62;100.00;100253.56;5026352;28;19948;-70
2022/12/01 06:06:24;;;;;;;;;;;;;;;7.74;100.00;100253.50;5026235;28;20107;-70
2022/12/01 06:08:49;;;;;;;;;;;;;;;7.52;100.00;100255.31;5026118;28;20195;-69
2022/12/01 06:11:15;;;;;;;;;;;;;;;7.68;100.00;100260.94;5025972;28;19917;-71
2022/12/01 06:13:40;;;;;;;;;;;;;;;7.74;100.00;100259.59;5024928;28;19951;-69
2022/12/01 06:16:06;;;;;;;;;;;;;;;7.62;100.00;100265.91;5024594;28;19948;-71
2022/12/01 06:18:33;;;;;;;;;;;;;;;7.67;100.00;100261.09;5026110;28;19917;-70
2022/12/01 06:20:58;;;;;;;;;;;;;;;7.58;100.00;100267.13;5021470;28;20238;-71
2022/12/01 06:23:24;;;;;;;;;;;;;;;7.51;100.00;100264.19;5006999;28;19932;-71
2022/12/01 06:25:49;;;;;;;;;;;;;;;7.65;100.00;100270.91;5008118;28;19914;-69
2022/12/01 06:28:15;;;;;;;;;;;;;;;7.57;100.00;100266.31;5007892;28;19917;-71
2022/12/01 06:30:40;;;;;;;;;;;;;;;7.56;100.00;100269.06;5006993;28;19915;-71
2022/12/01 06:33:06;;;;;;;;;;;;;;;7.62;100.00;100271.19;5007496;28;19918;-71
2022/12/01 06:35:31;;;;;;;;;;;;;;;7.46;100.00;100268.19;5007330;28;19913;-70
2022/12/01 06:37:57;;;;;;;;;;;;;;;7.52;100.00;100275.56;4989235;28;19953;-71
2022/12/01 06:40:22;;;;;;;;;;;;;;;7.55;100.00;100277.94;5007769;28;19920;-68
2022/12/01 06:42:47;;;;;;;;;;;;;;;7.40;100.00;100271.31;5007373;28;19917;-68
2022/12/01 06:45:13;;;;;;;;;;;;;;;7.28;100.00;100281.06;5006775;28;20207;-71
2022/12/01 06:47:38;;;;;;;;;;;;;;;7.26;100.00;100278.56;5007164;28;19917;-69
2022/12/01 06:50:06;;;;;;;;;;;;;;;7.33;100.00;100277.13;5006449;28;19914;-71
2022/12/01 06:52:32;;;;;;;;;;;;;;;7.40;100.00;100276.59;5007351;28;20183;-68
2022/12/01 06:54:59;;;;;;;;;;;;;;;7.34;100.00;100280.56;5006985;28;19922;-71
2022/12/01 06:57:24;;;;;;;;;;;;;;;7.41;100.00;100278.25;5006577;28;19968;-69
2022/12/01 06:59:49;;;;;;;;;;;;;;;7.40;100.00;100271.31;5007278;28;19914;-71
2022/12/01 07:02:15;;;;;;;;;;;;;;;7.33;100.00;100271.84;5005859;28;19921;-69
2022/12/01 07:04:41;;;;;;;;;;;;;;;7.17;100.00;100281.13;5007358;28;19953;-72
2022/12/01 07:07:06;;;;;;;;;;;;;;;6.97;100.00;100278.34;5007132;28;19925;-69
2022/12/01 07:09:32;;;;;;;;;;;;;;;6.99;100.00;100278.19;5006494;28;19932;-69
2022/12/01 07:11:57;;;;;;;;;;;;;;;7.14;100.00;100284.84;5006493;28;19921;-71
2022/12/01 07:14:23;;;;;;;;;;;;;;;7.12;100.00;100281.50;5004961;28;19921;-71
2022/12/01 07:16:49;;;;;;;;;;;;;;;7.38;100.00;100283.78;5007053;28;19961;-69
2022/12/01 07:19:14;;;;;;;;;;;;;;;7.39;100.00;100281.03;5006278;28;19962;-71
2022/12/01 07:21:39;;;;;;;;;;;;;;;7.27;100.00;100274.97;5006690;28;19921;-70
2022/12/01 07:24:05;;;;;;;;;;;;;;;7.07;100.00;100283.69;5006228;28;20166;-70
2022/12/01 07:26:30;;;;;;;;;;;;;;;7.31;100.00;100280.84;5006355;28;19913;-68
2022/12/01 07:28:55;;;;;;;;;;;;;;;7.36;100.00;100282.13;5005996;28;19964;-68
2022/12/01 07:31:21;;;;;;;;;;;;;;;7.27;100.00;100284.66;5007176;28;19913;-70
2022/12/01 07:33:46;;;;;;;;;;;;;;;7.44;100.00;100281.47;5008738;28;20110;-71
2022/12/01 07:36:12;;;;;;;;;;;;;;;7.57;100.00;100290.03;5005219;28;19913;-71
2022/12/01 07:38:37;;;;;;;;;;;;;;;7.45;100.00;100282.31;5005135;28;20160;-70
2022/12/01 07:41:06;;;;;;;;;;;;;;;7.59;100.00;100282.81;5007058;28;20238;-68
2022/12/01 07:43:32;;;;;;;;;;;;;;;7.60;100.00;100286.28;5006449;28;19917;-69
2022/12/01 07:46:07;;;;;;;;;;;;;;;7.95;100.00;100278.00;5006895;28;20141;-71
2022/12/01 07:48:32;;;;;;;;;;;;;;;8.03;100.00;100288.72;5006535;28;19939;-69
2022/12/01 07:50:58;;;;;;;;;;;;;;;7.92;100.00;100286.19;5004121;28;19962;-69
2022/12/01 07:53:23;;;;;;;;;;;;;;;7.77;100.00;100285.69;5005193;28;19963;-69
2022/12/01 07:55:49;;;;;;;;;;;;;;;7.72;100.00;100281.78;5003806;28;19914;-68
2022/12/01 08:00:49;;;;;;;;;;;;;;;7.89;100.00;100289.91;5121427;23;19925;-75
2022/12/01 08:03:15;;;;;;;;;;;;;;;7.82;100.00;100286.13;5023958;28;20222;-68
2022/12/01 08:05:40;;;;;;;;;;;;;;;7.56;100.00;100284.88;5025058;28;19951;-67
2022/12/01 08:08:05;;;;;;;;;;;;;;;7.74;100.00;100291.22;5033414;28;19913;-67
2022/12/01 08:10:31;;;;;;;;;;;;;;;7.83;100.00;100294.88;5023852;28;19921;-67
2022/12/01 08:12:56;;;;;;;;;;;;;;;7.58;100.00;100290.84;5029281;28;19913;-67
2022/12/01 08:15:21;;;;;;;;;;;;;;;7.19;100.00;100295.00;5024402;28;20020;-67
2022/12/01 08:17:46;;;;;;;;;;;;;;;7.28;100.00;100299.50;5024504;28;20004;-67
2022/12/01 08:20:12;;;;;;;;;;;;;;;7.31;100.00;100288.75;5025179;28;19931;-75
2022/12/01 08:22:37;;;;;;;;;;;;;;;7.25;100.00;100297.97;5040228;28;19970;-67
2022/12/01 08:25:03;;;;;;;;;;;;;;;7.27;100.00;100296.03;5028002;28;19928;-67
2022/12/01 08:27:28;;;;;;;;;;;;;;;7.38;100.00;100289.91;5023076;28;19913;-74
2022/12/01 08:29:54;;;;;;;;;;;;;;;7.37;100.00;100293.50;5028408;28;20241;-67
2022/12/01 08:32:19;;;;;;;;;;;;;;;7.28;100.00;100286.31;5027579;28;19913;-67
2022/12/01 08:34:44;;;;;;;;;;;;;;;7.32;100.00;100288.59;5030589;28;19913;-67
2022/12/01 08:37:09;;;;;;;;;;;;;;;7.32;100.00;100287.78;5024947;28;19913;-67
2022/12/01 08:39:35;;;;;;;;;;;;;;;7.22;100.00;100278.94;5033411;28;19913;-75
2022/12/01 08:42:00;;;;;;;;;;;;;;;7.05;100.00;100278.53;5028164;28;19921;-75
2022/12/01 08:44:25;;;;;;;;;;;;;;;7.30;100.00;100281.81;5034850;28;19917;-75
2022/12/01 08:46:51;;;;;;;;;;;;;;;7.15;100.00;100278.63;5028286;28;19963;-75
2022/12/01 08:49:16;;;;;;;;;;;;;;;7.22;100.00;100277.13;5022549;28;20020;-67
2022/12/01 08:51:41;;;;;;;;;;;;;;;7.46;100.00;100265.53;5021974;28;19919;-66
2022/12/01 08:54:09;;;;;;;;;;;;;;;7.41;100.00;100263.28;5026186;28;19917;-74
2022/12/01 08:56:36;;;;;;;;;;;;;;;7.74;100.00;100275.41;5015511;28;19921;-68
2022/12/01 08:59:01;;;;;;;;;;;;;;;7.71;100.00;100270.41;5025486;28;19921;-67
2022/12/01 09:01:27;;;;;;;;;;;;;;;7.72;100.00;100264.16;5024959;28;20246;-75
2022/12/01 09:04:03;;;;;;;;;;;;;;;7.78;100.00;100263.63;5030255;28;19948;-67
2022/12/01 09:06:29;;;;;;;;;;;;;;;8.07;100.00;100266.41;5031271;28;19921;-67
2022/12/01 09:08:55;;;;;;;;;;;;;;;8.25;100.00;100261.31;5030268;28;19984;-67
2022/12/01 09:11:20;;;;;;;;;;;;;;;8.18;100.00;100257.53;5029994;28;20146;-75
2022/12/01 09:13:45;;;;;;;;;;;;;;;7.84;100.00;100259.63;5029878;28;19932;-75
2022/12/01 09:16:12;;;;;;;;;;;;;;;7.85;100.00;100251.59;5029828;28;20142;-66
2022/12/01 09:18:37;;;;;;;;;;;;;;;7.91;100.00;100256.34;5032706;28;19959;-75
2022/12/01 09:21:13;;;;;;;;;;;;;;;7.82;100.00;100256.31;5030122;28;19917;-68
2022/12/01 09:23:39;;;;;;;;;;;;;;;7.91;100.00;100256.34;5029979;28;20408;-67
2022/12/01 09:26:04;;;;;;;;;;;;;;;7.91;100.00;100251.06;5028855;28;20119;-67
2022/12/01 09:28:30;;;;;;;;;;;;;;;7.64;100.00;100248.16;5029990;28;19917;-76
2022/12/01 09:30:55;;;;;;;;;;;;;;;7.73;100.00;100243.91;5029061;28;20142;-67
2022/12/01 09:33:20;;;;;;;;;;;;;;;7.58;100.00;100244.25;5029208;28;19918;-67
2022/12/01 09:35:46;;;;;;;;;;;;;;;7.49;100.00;100236.28;5028743;28;19992;-75
2022/12/01 09:38:11;;;;;;;;;;;;;;;7.27;100.00;100239.88;5029500;28;20140;-67
2022/12/01 09:40:38;;;;;;;;;;;;;;;7.39;100.00;100232.78;5028062;28;19980;-75
2022/12/01 09:43:10;;;;;;;;;;;;;;;7.61;100.00;100232.63;5011385;28;19921;-66
2022/12/01 09:45:38;;;;;;;;;;;;;;;7.71;100.00;100225.59;5027744;28;20158;-66
2022/12/01 09:48:05;;;;;;;;;;;;;;;7.71;100.00;100224.75;5031197;28;19913;-67
2022/12/01 09:50:30;;;;;;;;;;;;;;;7.86;100.00;100229.53;5031262;28;19983;-67
2022/12/01 09:53:02;;;;;;;;;;;;;;;8.04;100.00;100228.91;5027956;28;20000;-75
2022/12/01 09:55:29;;;;;;;;;;;;;;;7.79;100.00;100225.75;5020186;28;19923;-75
2022/12/01 09:57:56;;;;;;;;;;;;;;;8.05;100.00;100230.56;5028214;28;20110;-67
2022/12/01 10:00:23;;;;;;;;;;;;;;;8.34;100.00;100230.72;5028232;28;19936;-74
2022/12/01 10:03:02;;;;;;;;;;;;;;;8.32;100.00;100230.78;5029598;28;20106;-75
2022/12/01 10:05:37;;;;;;;;;;;;;;;8.06;100.00;100227.81;5030255;28;19923;-67
2022/12/01 10:08:04;;;;;;;;;;;;;;;8.12;100.00;100218.50;5028364;28;20044;-75
2022/12/01 10:10:33;;;;;;;;;;;;;;;8.24;100.00;100223.53;5029354;28;19918;-74
2022/12/01 10:12:59;;;;;;;;;;;;;;;8.24;100.00;100215.63;5027559;28;19920;-67
2022/12/01 10:15:24;;;;;;;;;;;;;;;8.29;100.00;100228.41;5029498;28;20177;-67
2022/12/01 10:17:52;;;;;;;;;;;;;;;8.24;100.00;100231.47;5028245;28;20016;-67
2022/12/01 10:20:23;;;;;;;;;;;;;;;8.48;100.00;100220.59;5035163;28;20109;-67
2022/12/01 10:22:58;;;;;;;;;;;;;;;8.57;100.00;100218.94;5012359;28;20172;-75
2022/12/01 10:25:25;;;;;;;;;;;;;;;8.36;100.00;100213.78;5027394;28;20001;-74
2022/12/01 10:27:50;;;;;;;;;;;;;;;8.29;100.00;100208.16;5029020;28;19976;-67
2022/12/01 10:30:17;;;;;;;;;;;;;;;8.59;100.00;100209.06;5027117;28;19919;-75
2022/12/01 10:33:09;;;;;;;;;;;;;;;8.58;100.00;100218.81;5028400;28;19913;-68
2022/12/01 10:35:34;;;;;;;;;;;;;;;8.55;100.00;100213.81;5028433;28;19935;-67
2022/12/01 10:38:05;;;;;;;;;;;;;;;8.53;100.00;100215.75;5010404;28;20158;-67
2022/12/01 10:40:34;;;;;;;;;;;;;;;8.45;100.00;100212.94;5028030;28;20102;-75
2022/12/01 10:43:00;;;;;;;;;;;;;;;8.46;100.00;100213.78;5027354;28;19943;-67
2022/12/01 10:45:27;;;;;;;;;;;;;;;8.49;100.00;100206.44;5027134;28;20087;-74
2022/12/01 10:48:13;;;;;;;;;;;;;;;8.37;100.00;100204.88;5027767;28;20221;-67
2022/12/01 10:50:39;;;;;;;;;;;;;;;8.28;100.00;100205.63;5032219;28;20168;-75
2022/12/01 10:53:05;;;;;;;;;;;;;;;8.32;100.00;100186.78;5028111;28;19921;-75
2022/12/01 10:55:33;;;;;;;;;;;;;;;8.30;100.00;100193.16;5027052;28;20083;-75
2022/12/01 10:58:01;;;;;;;;;;;;;;;8.52;100.00;100195.59;5027487;28;19932;-75
2022/12/01 11:00:37;;;;;;;;;;;;;;;8.61;100.00;100191.28;5009043;28;19918;-75
2022/12/01 11:03:03;;;;;;;;;;;;;;;8.73;100.00;100197.28;5028731;28;19914;-75
2022/12/01 11:05:39;;;;;;;;;;;;;;;8.54;100.00;100195.47;5027243;28;20088;-67
2022/12/01 11:08:05;;;;;;;;;;;;;;;8.36;100.00;100191.84;5025494;28;19922;-67
2022/12/01 11:10:31;;;;;;;;;;;;;;;8.44;100.00;100192.81;5026461;28;19990;-75
2022/12/01 11:12:57;;;;;;;;;;;;;;;8.52;100.00;100189.50;5026449;28;19921;-75
2022/12/01 11:15:33;;;;;;;;;;;;;;;8.56;100.00;100189.06;5010949;28;19917;-67
2022/12/01 11:18:02;;;;;;;;;;;;;;;8.64;100.00;100186.56;5028403;28;19912;-75
2022/12/01 11:20:31;;;;;;;;;;;;;;;8.55;100.00;100183.94;5026455;28;19921;-75
2022/12/01 11:23:25;;;;;;;;;;;;;;;8.43;100.00;100185.88;5026922;28;20087;-75
2022/12/01 11:26:02;;;;;;;;;;;;;;;8.60;100.00;100184.34;5025141;28;19932;-68
2022/12/01 11:28:28;;;;;;;;;;;;;;;8.72;100.00;100171.84;5028031;28;19951;-75
2022/12/01 11:30:58;;;;;;;;;;;;;;;8.76;100.00;100175.88;5025959;28;19988;-75
2022/12/01 11:33:23;;;;;;;;;;;;;;;8.86;100.00;100174.06;5028488;28;19921;-67
2022/12/01 11:35:49;;;;;;;;;;;;;;;8.82;100.00;100176.13;5026647;28;20167;-67
2022/12/01 11:38:22;;;;;;;;;;;;;;;8.88;100.00;100169.47;5026960;28;19992;-75
2022/12/01 11:40:49;;;;;;;;;;;;;;;8.98;100.00;100169.44;5025299;28;19932;-75
2022/12/01 11:43:21;;;;;;;;;;;;;;;8.84;100.00;100162.81;5026662;28;19924;-75
2022/12/01 11:45:47;;;;;;;;;;;;;;;8.87;100.00;100173.09;5025884;28;19988;-75
2022/12/01 11:48:14;;;;;;;;;;;;;;;9.05;100.00;100176.66;5028378;28;19913;-67
2022/12/01 11:50:41;;;;;;;;;;;;;;;9.11;100.00;100173.47;5027578;28;19937;-75
2022/12/01 11:53:24;;;;;;;;;;;;;;;8.95;100.00;100171.41;5026949;28;19920;-75
2022/12/01 11:55:49;;;;;;;;;;;;;;;8.89;100.00;100173.78;5024640;28;19924;-67
2022/12/01 11:58:15;;;;;;;;;;;;;;;8.79;100.00;100179.06;5027081;28;19925;-67
2022/12/01 12:00:49;;;;;;;;;;;;;;;8.72;100.00;100179.75;5024525;28;20207;-75
2022/12/01 12:03:32;;;;;;;;;;;;;;;8.46;100.00;100177.69;5026409;28;19922;-67
2022/12/01 12:06:04;;;;;;;;;;;;;;;8.67;100.00;100174.06;5027116;28;19960;-71
2022/12/01 12:08:35;;;;;;;;;;;;;;;8.60;100.00;100179.06;5025136;28;19980;-68
2022/12/01 12:11:18;;;;;;;;;;;;;;;8.67;100.00;100171.44;5025414;28;19947;-68
2022/12/01 12:14:16;;;;;;;;;;;;;;;8.49;100.00;100177.41;5026640;28;19944;-67
2022/12/01 12:16:57;;;;;;;;;;;;;;;8.56;100.00;100175.03;4978998;28;19948;-67
2022/12/01 12:19:28;;;;;;;;;;;;;;;8.67;100.00;100166.16;5027114;28;19921;-67
2022/12/01 12:22:29;;;;;;;;;;;;;;;8.74;100.00;100176.00;5007679;28;20597;-76
2022/12/01 12:25:01;;;;;;;;;;;;;;;8.69;100.00;100172.13;4998676;28;20049;-67
2022/12/01 12:27:26;;;;;;;;;;;;;;;8.72;100.00;100171.84;5021472;28;19937;-67
2022/12/01 12:29:51;;;;;;;;;;;;;;;8.51;100.00;100179.91;5008587;28;19947;-68
2022/12/01 12:32:17;;;;;;;;;;;;;;;8.46;100.00;100177.69;5026316;28;19928;-68
2022/12/01 12:35:08;;;;;;;;;;;;;;;8.43;100.00;100174.47;5027609;28;19913;-74
2022/12/01 12:37:38;;;;;;;;;;;;;;;8.56;100.00;100149.47;5025950;28;19976;-75
2022/12/01 12:40:22;;;;;;;;;;;;;;;8.67;100.00;100168.78;5025423;28;19995;-75
2022/12/01 12:42:50;;;;;;;;;;;;;;;8.69;100.00;100172.13;5026499;28;19932;-72
2022/12/01 12:45:18;;;;;;;;;;;;;;;8.61;100.00;100165.72;5017799;28;19917;-75
2022/12/01 12:47:57;;;;;;;;;;;;;;;8.73;100.00;100161.13;5025534;28;20222;-75
2022/12/01 12:50:35;;;;;;;;;;;;;;;8.51;100.00;100171.97;5026442;28;19980;-75